Laura Ann — V2AR8 — position and weather

sailwx.info

Track history (hours):
 
Tides and Currents Weather Stations Pressure Air Temp Water Temp Dewpoint Dewpoint Depression Visibility Wind Speed Wind Dir Waves Ship Positions

Laura Ann

Last reported at 2018-Feb-23 04:30 UTC. Time now 2018-Feb-23 04:59 UTC.
Position N 46°08' W 001°58'.

Length 134 m; draft 8.5 m.

Type: Ship. MMSI: 305594370.

Date/timePositionNaut miles runAvg speedWind from/ knotsBaromVisibWave heightAir tempDewpointWater temp
2018-Feb-23 04:30N 46°08' W 001°58'612.3
2018-Feb-23 04:00N 46°03' W 001°52'612.4
2018-Feb-23 03:30N 45°58' W 001°47'1912.3
2018-Feb-23 01:55N 45°42' W 001°30'512.6
2018-Feb-23 01:30N 45°38' W 001°25'612.3
2018-Feb-23 01:00N 45°39' W 001°17'815.2
2018-Feb-23 00:30N 45°37' W 001°06'714.3
2018-Feb-23 00:00N 45°32' W 000°60'815.2
2018-Feb-22 23:30N 45°26' W 000°53'714.8
2018-Feb-22 23:00N 45°20' W 000°47'8 0.3
2018-Feb-21 17:35N 45°12' W 000°44'516.6
2018-Feb-21 17:19N 45°16' W 000°45'516.8
2018-Feb-21 17:00N 45°21' W 000°48'714.9
2018-Feb-21 16:30N 45°27' W 000°54'816.3
2018-Feb-21 16:00N 45°33' W 001°02'713.5
2018-Feb-21 15:30N 45°38' W 001°08'714.0
2018-Feb-21 15:00N 45°38' W 001°18'611.9
2018-Feb-21 14:30N 45°36' W 001°26'1 1.4
2018-Feb-21 13:39N 45°35' W 001°27'0 0.1
2018-Feb-21 13:30N 45°35' W 001°27'0 0.0
2018-Feb-21 13:00N 45°35' W 001°27'0 0.0
2018-Feb-21 05:45N 45°35' W 001°27'0 0.1
2018-Feb-21 05:30N 45°35' W 001°27'0 0.0
2018-Feb-21 05:00N 45°35' W 001°27'0 0.0
2018-Feb-21 04:27N 45°35' W 001°27'0 0.0
2018-Feb-21 04:00N 45°35' W 001°27'0 0.0
2018-Feb-21 02:51N 45°35' W 001°27'0 0.0
2018-Feb-21 02:30N 45°35' W 001°27'0 0.0
2018-Feb-21 02:00N 45°35' W 001°27'2610.8
2018-Feb-20 23:33N 45°56' W 001°50'112.8
2018-Feb-20 23:29N 45°57' W 001°51'912.7
2018-Feb-20 22:49N 46°03' W 001°60'612.8
2018-Feb-20 22:22N 46°07' W 002°05'12912.9
2018-Feb-20 12:26N 47°31' W 004°28'712.8
2018-Feb-20 11:55N 47°35' W 004°35'612.7
2018-Feb-20 11:28N 47°39' W 004°42'613.0
2018-Feb-20 10:59N 47°43' W 004°49'613.3
2018-Feb-20 10:30N 47°47' W 004°56'713.7
2018-Feb-20 10:00N 47°51' W 005°04'714.3
2018-Feb-20 09:30N 47°56' W 005°12'714.1
2018-Feb-20 09:00N 48°01' W 005°20'713.9
2018-Feb-20 08:30N 48°07' W 005°25'713.6
2018-Feb-20 08:00N 48°13' W 005°30'1915.0
2018-Feb-20 06:42N 48°29' W 005°47'2610.2
2018-Feb-20 04:11N 48°54' W 005°42'1012.0
2018-Feb-20 03:22N 48°59' W 005°29'7113.2
2018-Feb-19 22:00N 49°35' W 003°55'1411.3
2018-Feb-19 20:49N 49°41' W 003°37'310.9
2018-Feb-19 20:30N 49°43' W 003°33'510.7
2018-Feb-19 20:00N 49°46' W 003°25'510.8
2018-Feb-19 19:30N 49°48' W 003°18'611.2
2018-Feb-19 19:00N 49°51' W 003°11'611.8
2018-Feb-19 18:30N 49°55' W 003°03'612.7
2018-Feb-19 18:00N 49°58' W 002°54'713.4
2018-Feb-19 17:30N 49°59' W 002°44'714.3
2018-Feb-19 17:00N 50°01' W 002°33'914.9
2018-Feb-19 16:25N 50°02' W 002°20'715.5
2018-Feb-19 15:57N 49°60' W 002°09'716.1
2018-Feb-19 15:31N 49°58' W 001°59'816.1
2018-Feb-19 15:01N 49°55' W 001°47'815.9
2018-Feb-19 14:30N 49°53' W 001°35'815.2
2018-Feb-19 14:01N 49°50' W 001°24'714.4
2018-Feb-19 13:30N 49°48' W 001°13'613.0
2018-Feb-19 13:00N 49°46' W 001°04'613.0
2018-Feb-19 12:30N 49°43' W 000°55'815.1
2018-Feb-19 12:00N 49°41' W 000°44'611.5
2018-Feb-19 11:30N 49°39' W 000°35'611.4
2018-Feb-19 11:00N 49°36' W 000°27'611.2
2018-Feb-19 10:30N 49°34' W 000°19'611.5
2018-Feb-19 10:00N 49°32' W 000°11'611.5
2018-Feb-19 09:30N 49°30' W 000°03'713.0
2018-Feb-19 09:00N 49°28' E 000°07'2 4.6
2018-Feb-19 08:29N 49°27' E 000°10'0 0.0
2018-Feb-19 07:59N 49°27' E 000°10'0 0.0
2018-Feb-19 07:30N 49°27' E 000°10'0 0.0
2018-Feb-19 06:59N 49°27' E 000°10'0 0.0
2018-Feb-19 06:29N 49°27' E 000°10'0 0.0
2018-Feb-19 05:59N 49°27' E 000°10'0 0.0
2018-Feb-19 05:29N 49°27' E 000°10'0 0.0
2018-Feb-19 05:00N 49°27' E 000°10'0 0.0
2018-Feb-19 04:29N 49°27' E 000°10'0 0.0
2018-Feb-19 03:59N 49°27' E 000°10'0 0.0
2018-Feb-19 03:29N 49°27' E 000°10'0 0.0
2018-Feb-19 02:59N 49°27' E 000°10'0 0.0
2018-Feb-19 02:29N 49°27' E 000°10'0 0.0
2018-Feb-19 01:59N 49°27' E 000°10'0 0.0
2018-Feb-19 01:29N 49°27' E 000°10'0 0.0
2018-Feb-19 00:59N 49°27' E 000°10'0 0.0
2018-Feb-19 00:29N 49°27' E 000°10'0 0.0
2018-Feb-18 23:59N 49°27' E 000°10'0 0.0
2018-Feb-18 23:29N 49°27' E 000°10'0 0.0
2018-Feb-18 22:59N 49°27' E 000°10'0 0.0
2018-Feb-18 22:29N 49°27' E 000°10'0 0.0
2018-Feb-18 21:59N 49°27' E 000°10'0 0.0
2018-Feb-18 21:29N 49°27' E 000°10'0 0.0
2018-Feb-18 20:59N 49°27' E 000°10'0 0.0
2018-Feb-18 20:31N 49°27' E 000°10'3 5.8
2018-Feb-18 20:00N 49°28' E 000°06'2 4.2
2018-Feb-18 19:28N 49°28' E 000°09'0 0.0
2018-Feb-18 18:58N 49°28' E 000°09'0 0.0
2018-Feb-18 18:28N 49°28' E 000°09'0 0.0
2018-Feb-18 17:58N 49°28' E 000°09'0 0.0
2018-Feb-18 17:28N 49°28' E 000°09'0 0.0
2018-Feb-18 16:58N 49°28' E 000°09'0 0.0
2018-Feb-18 16:28N 49°28' E 000°09'0 0.0
2018-Feb-18 15:58N 49°28' E 000°09'0 0.0
2018-Feb-18 15:28N 49°28' E 000°09'0 0.0
2018-Feb-18 14:58N 49°28' E 000°09'0 0.0
2018-Feb-18 14:28N 49°28' E 000°09'0 0.0
2018-Feb-18 13:58N 49°28' E 000°09'0 0.0
2018-Feb-18 13:28N 49°28' E 000°09'0 0.0
2018-Feb-18 12:58N 49°28' E 000°09'0 0.0
2018-Feb-18 12:28N 49°28' E 000°09'0 0.0
2018-Feb-18 11:58N 49°28' E 000°09'0 0.0
2018-Feb-18 11:28N 49°28' E 000°09'0 0.0
2018-Feb-18 11:00N 49°28' E 000°09'2 3.2
2018-Feb-18 10:31N 49°29' E 000°07'713.9
2018-Feb-18 10:00N 49°31' W 000°03'713.1
2018-Feb-18 09:31N 49°33' W 000°13'713.9
2018-Feb-18 09:00N 49°35' W 000°23'714.1
2018-Feb-18 08:30N 49°38' W 000°33'714.3
2018-Feb-18 08:00N 49°40' W 000°43'714.1
2018-Feb-18 07:30N 49°43' W 000°53'713.8
2018-Feb-18 07:01N 49°45' W 001°03'612.9
2018-Feb-18 06:30N 49°48' W 001°13'611.6
2018-Feb-18 06:01N 49°50' W 001°21'510.6
2018-Feb-18 05:31N 49°51' W 001°29'5 9.9
2018-Feb-18 05:00N 49°51' W 001°37'5 9.3
2018-Feb-18 04:30N 49°51' W 001°44'4 8.5
2018-Feb-18 04:00N 49°52' W 001°51'4 7.9
2018-Feb-18 03:30N 49°52' W 001°57'4 7.9
2018-Feb-18 03:01N 49°52' W 002°03'22 9.8
2018-Feb-18 00:44N 49°50' W 002°37'612.3
2018-Feb-18 00:13N 49°48' W 002°47'8113.0
2018-Feb-17 17:59N 49°08' W 004°35'814.2
2018-Feb-17 17:25N 49°04' W 004°46'614.2
2018-Feb-17 17:00N 49°02' W 004°54'714.1
2018-Feb-17 16:30N 48°58' W 005°03'814.0
2018-Feb-17 15:57N 48°54' W 005°13'614.2
2018-Feb-17 15:31N 48°51' W 005°21'714.2
2018-Feb-17 15:00N 48°47' W 005°31'713.4
2018-Feb-17 14:28N 48°42' W 005°38'613.8
2018-Feb-17 14:00N 48°36' W 005°43'712.4
2018-Feb-17 13:26N 48°30' W 005°39'512.8
2018-Feb-17 13:00N 48°25' W 005°35'612.5
2018-Feb-17 12:29N 48°19' W 005°30'712.1
2018-Feb-17 11:57N 48°14' W 005°25'512.1
2018-Feb-17 11:30N 48°09' W 005°22'611.8
2018-Feb-17 11:00N 48°04' W 005°17'611.3
2018-Feb-17 10:30N 47°59' W 005°12'611.1
2018-Feb-17 10:00N 47°56' W 005°06'611.3
2018-Feb-17 09:30N 47°53' W 004°59'611.5
2018-Feb-17 09:00N 47°50' W 004°51'611.5
2018-Feb-17 08:29N 47°46' W 004°44'611.5
2018-Feb-17 07:58N 47°43' W 004°37'714.5
2018-Feb-17 07:30N 47°39' W 004°28'815.1
2018-Feb-17 07:00N 47°35' W 004°19'711.6
2018-Feb-17 06:26N 47°32' W 004°10'511.8
2018-Feb-17 06:00N 47°29' W 004°04'611.7
2018-Feb-17 05:30N 47°26' W 003°57'611.5
2018-Feb-17 05:00N 47°23' W 003°50'611.5
2018-Feb-17 04:30N 47°20' W 003°43'611.5
2018-Feb-17 04:00N 47°17' W 003°35'611.0
2018-Feb-17 03:30N 47°14' W 003°28'611.2
2018-Feb-17 03:00N 47°11' W 003°21'611.4
2018-Feb-17 02:30N 47°09' W 003°13'611.5
2018-Feb-17 02:00N 47°07' W 003°05'611.8
2018-Feb-17 01:29N 47°04' W 002°57'912.2
2018-Feb-17 00:43N 47°02' W 002°44'312.4
2018-Feb-17 00:30N 47°01' W 002°40'611.8
2018-Feb-17 00:00N 47°03' W 002°32'612.0
2018-Feb-16 23:30N 47°06' W 002°24'611.5
2018-Feb-16 23:00N 47°10' W 002°19'714.0
2018-Feb-16 22:31N 47°16' W 002°12'3 5.9
2018-Feb-16 22:00N 47°18' W 002°09'0 0.0
2018-Feb-16 21:30N 47°18' W 002°09'0 0.0
2018-Feb-16 21:00N 47°18' W 002°09'0 0.0
2018-Feb-16 20:30N 47°18' W 002°09'0 0.0
2018-Feb-16 20:00N 47°18' W 002°09'0 0.0
2018-Feb-16 19:30N 47°18' W 002°09'0 0.0
2018-Feb-16 19:00N 47°18' W 002°09'0 0.0
2018-Feb-16 18:30N 47°18' W 002°09'0 0.0
2018-Feb-16 17:57N 47°18' W 002°09'0 0.0
2018-Feb-16 17:30N 47°18' W 002°09'0 0.0
2018-Feb-16 17:00N 47°18' W 002°09'0 0.0
2018-Feb-16 16:24N 47°18' W 002°09'0 0.0
2018-Feb-16 15:57N 47°18' W 002°09'0 0.0
2018-Feb-16 15:27N 47°18' W 002°09'0 0.0
2018-Feb-16 14:45N 47°18' W 002°09'0 0.0
2018-Feb-16 14:30N 47°18' W 002°09'0 0.0
2018-Feb-16 14:00N 47°18' W 002°09'0 0.0
2018-Feb-16 13:24N 47°18' W 002°09'0 0.0
2018-Feb-16 13:00N 47°18' W 002°09'0 0.0
2018-Feb-16 12:30N 47°18' W 002°09'0 0.0
2018-Feb-16 12:00N 47°18' W 002°09'0 0.0
2018-Feb-16 11:30N 47°18' W 002°09'0 0.0
2018-Feb-16 11:00N 47°18' W 002°09'0 0.0
2018-Feb-16 10:30N 47°18' W 002°09'0 0.0
2018-Feb-16 09:55N 47°18' W 002°09'1 2.2
2018-Feb-16 09:30N 47°17' W 002°10'612.3
2018-Feb-16 09:00N 47°13' W 002°17'713.0
2018-Feb-16 08:30N 47°07' W 002°22'611.5
2018-Feb-16 08:00N 47°04' W 002°28'611.7
2018-Feb-16 07:30N 47°01' W 002°36'611.9
2018-Feb-16 07:00N 46°58' W 002°44'612.2
2018-Feb-16 06:29N 46°54' W 002°51'810.9
2018-Feb-16 05:46N 46°47' W 002°47'312.4
2018-Feb-16 05:29N 46°45' W 002°44'612.4
2018-Feb-16 05:00N 46°40' W 002°38'612.2
2018-Feb-16 04:30N 46°35' W 002°32'612.2
2018-Feb-16 04:00N 46°31' W 002°27'611.9
2018-Feb-16 03:30N 46°26' W 002°21'611.7
2018-Feb-16 03:00N 46°22' W 002°15'611.9
2018-Feb-16 02:30N 46°17' W 002°10'611.9
2018-Feb-16 01:59N 46°12' W 002°04'611.8
2018-Feb-16 01:30N 46°08' W 001°59'611.9
2018-Feb-16 01:00N 46°03' W 001°54'612.1
2018-Feb-16 00:30N 45°59' W 001°48'612.5
2018-Feb-16 00:00N 45°54' W 001°43'1112.5
2018-Feb-15 23:06N 45°45' W 001°33'312.6
2018-Feb-15 22:50N 45°42' W 001°30'512.7
2018-Feb-15 22:28N 45°39' W 001°26'510.1
2018-Feb-15 22:00N 45°37' W 001°19'714.7
2018-Feb-15 21:30N 45°39' W 001°09'814.7
2018-Feb-15 21:00N 45°33' W 001°02'917.5
2018-Feb-15 20:30N 45°27' W 000°54'816.1
2018-Feb-15 20:00N 45°20' W 000°47'2414.0
2018-Feb-15 18:18N 44°59' W 000°32'14 0.9
2018-Feb-15 01:58N 45°11' W 000°43'715.0
2018-Feb-15 01:30N 45°18' W 000°46'816.0
2018-Feb-15 01:00N 45°25' W 000°51'816.9
2018-Feb-15 00:30N 45°31' W 000°59'613.1
2018-Feb-15 00:01N 45°36' W 001°04'714.8
2018-Feb-14 23:30N 45°39' W 001°14'612.7
2018-Feb-14 23:00N 45°37' W 001°23'1611.9
2018-Feb-14 21:39N 45°51' W 001°33'312.8
2018-Feb-14 21:27N 45°54' W 001°34'612.7
2018-Feb-14 21:00N 45°59' W 001°37'713.1
2018-Feb-14 20:30N 46°05' W 001°40'612.1
2018-Feb-14 20:01N 46°07' W 001°32'714.5
2018-Feb-14 19:31N 46°06' W 001°21'510.2
2018-Feb-14 19:00N 46°09' W 001°15'1 2.1
2018-Feb-14 18:30N 46°09' W 001°13'0 0.0
2018-Feb-14 18:00N 46°09' W 001°13'0 0.0
2018-Feb-14 17:30N 46°09' W 001°13'0 0.0
2018-Feb-14 17:00N 46°09' W 001°13'0 0.0
2018-Feb-14 16:30N 46°09' W 001°13'0 0.0
2018-Feb-14 16:00N 46°09' W 001°13'0 0.0
2018-Feb-14 15:30N 46°09' W 001°13'0 0.0
2018-Feb-14 15:00N 46°09' W 001°13'0 0.0
2018-Feb-14 14:30N 46°09' W 001°13'0 0.0
2018-Feb-14 14:00N 46°09' W 001°13'0 0.0
2018-Feb-14 13:30N 46°09' W 001°13'0 0.0
2018-Feb-14 13:00N 46°09' W 001°13'0 0.0
2018-Feb-14 12:30N 46°09' W 001°13'0 0.0
2018-Feb-14 12:00N 46°09' W 001°13'0 0.0
2018-Feb-14 11:31N 46°09' W 001°13'1 2.3
2018-Feb-14 11:01N 46°09' W 001°15'510.5
2018-Feb-14 10:30N 46°06' W 001°22'917.2
2018-Feb-14 10:00N 46°08' W 001°34'815.9
2018-Feb-14 09:30N 46°10' W 001°45'815.8
2018-Feb-14 09:00N 46°14' W 001°54'815.9
2018-Feb-14 08:30N 46°19' W 002°03'1115.8
2018-Feb-14 07:48N 46°26' W 002°16'516.1
2018-Feb-14 07:30N 46°29' W 002°21'5916.8
2018-Feb-14 03:59N 47°04' W 003°32'4017.4
2018-Feb-14 01:43N 47°29' W 004°17'817.2
2018-Feb-14 01:15N 47°34' W 004°26'517.4
2018-Feb-14 01:00N 47°36' W 004°31'917.4
2018-Feb-14 00:29N 47°41' W 004°42'817.3
2018-Feb-14 00:00N 47°46' W 004°52'917.1
2018-Feb-13 23:30N 47°52' W 005°02'1217.1
2018-Feb-13 22:46N 47°59' W 005°17'717.1
2018-Feb-13 22:22N 48°05' W 005°23'717.4
2018-Feb-13 21:59N 48°10' W 005°28'11810.5
2018-Feb-13 10:46N 49°43' W 003°37'311.9
2018-Feb-13 10:30N 49°44' W 003°32'611.5
2018-Feb-13 10:00N 49°47' W 003°25'510.4
2018-Feb-13 09:30N 49°49' W 003°18'5 9.5
2018-Feb-13 09:00N 49°52' W 003°11'4 8.9
2018-Feb-13 08:30N 49°54' W 003°06'4 7.5
2018-Feb-13 08:00N 49°56' W 003°01'4 7.4
2018-Feb-13 07:30N 49°58' W 002°55'5 8.4
2018-Feb-13 06:58N 49°59' W 002°49'4 8.3
2018-Feb-13 06:30N 49°60' W 002°43'4 8.0
2018-Feb-13 05:58N 50°01' W 002°36'4 8.1
2018-Feb-13 05:30N 50°02' W 002°31'  
Track history (hours):
 
Tides and Currents Weather Stations Pressure Air Temp Water Temp Dewpoint Dewpoint Depression Visibility Wind Speed Wind Dir Waves Ship Positions

Laura Ann

Last reported at 2018-Feb-23 04:30 UTC. Time now 2018-Feb-23 04:59 UTC.
Position N 46°08' W 001°58'.

Length 134 m; draft 8.5 m.

Type: Ship. MMSI: 305594370.

Date/timePositionNaut miles runAvg speedWind from/ knotsBaromVisibWave heightAir tempDewpointWater temp
2018-Feb-23 04:30N 46°08' W 001°58'612.3
2018-Feb-23 04:00N 46°03' W 001°52'612.4
2018-Feb-23 03:30N 45°58' W 001°47'1912.3
2018-Feb-23 01:55N 45°42' W 001°30'512.6
2018-Feb-23 01:30N 45°38' W 001°25'612.3
2018-Feb-23 01:00N 45°39' W 001°17'815.2
2018-Feb-23 00:30N 45°37' W 001°06'714.3
2018-Feb-23 00:00N 45°32' W 000°60'815.2
2018-Feb-22 23:30N 45°26' W 000°53'714.8
2018-Feb-22 23:00N 45°20' W 000°47'8 0.3
2018-Feb-21 17:35N 45°12' W 000°44'516.6
2018-Feb-21 17:19N 45°16' W 000°45'516.8
2018-Feb-21 17:00N 45°21' W 000°48'714.9
2018-Feb-21 16:30N 45°27' W 000°54'816.3
2018-Feb-21 16:00N 45°33' W 001°02'713.5
2018-Feb-21 15:30N 45°38' W 001°08'714.0
2018-Feb-21 15:00N 45°38' W 001°18'611.9
2018-Feb-21 14:30N 45°36' W 001°26'1 1.4
2018-Feb-21 13:39N 45°35' W 001°27'0 0.1
2018-Feb-21 13:30N 45°35' W 001°27'0 0.0
2018-Feb-21 13:00N 45°35' W 001°27'0 0.0
2018-Feb-21 05:45N 45°35' W 001°27'0 0.1
2018-Feb-21 05:30N 45°35' W 001°27'0 0.0
2018-Feb-21 05:00N 45°35' W 001°27'0 0.0
2018-Feb-21 04:27N 45°35' W 001°27'0 0.0
2018-Feb-21 04:00N 45°35' W 001°27'0 0.0
2018-Feb-21 02:51N 45°35' W 001°27'0 0.0
2018-Feb-21 02:30N 45°35' W 001°27'0 0.0
2018-Feb-21 02:00N 45°35' W 001°27'2610.8
2018-Feb-20 23:33N 45°56' W 001°50'112.8
2018-Feb-20 23:29N 45°57' W 001°51'912.7
2018-Feb-20 22:49N 46°03' W 001°60'612.8
2018-Feb-20 22:22N 46°07' W 002°05'12912.9
2018-Feb-20 12:26N 47°31' W 004°28'712.8
2018-Feb-20 11:55N 47°35' W 004°35'612.7
2018-Feb-20 11:28N 47°39' W 004°42'613.0
2018-Feb-20 10:59N 47°43' W 004°49'613.3
2018-Feb-20 10:30N 47°47' W 004°56'713.7
2018-Feb-20 10:00N 47°51' W 005°04'714.3
2018-Feb-20 09:30N 47°56' W 005°12'714.1
2018-Feb-20 09:00N 48°01' W 005°20'713.9
2018-Feb-20 08:30N 48°07' W 005°25'713.6
2018-Feb-20 08:00N 48°13' W 005°30'1915.0
2018-Feb-20 06:42N 48°29' W 005°47'2610.2
2018-Feb-20 04:11N 48°54' W 005°42'1012.0
2018-Feb-20 03:22N 48°59' W 005°29'7113.2
2018-Feb-19 22:00N 49°35' W 003°55'1411.3
2018-Feb-19 20:49N 49°41' W 003°37'310.9
2018-Feb-19 20:30N 49°43' W 003°33'510.7
2018-Feb-19 20:00N 49°46' W 003°25'510.8
2018-Feb-19 19:30N 49°48' W 003°18'611.2
2018-Feb-19 19:00N 49°51' W 003°11'611.8
2018-Feb-19 18:30N 49°55' W 003°03'612.7
2018-Feb-19 18:00N 49°58' W 002°54'713.4
2018-Feb-19 17:30N 49°59' W 002°44'714.3
2018-Feb-19 17:00N 50°01' W 002°33'914.9
2018-Feb-19 16:25N 50°02' W 002°20'715.5
2018-Feb-19 15:57N 49°60' W 002°09'716.1
2018-Feb-19 15:31N 49°58' W 001°59'816.1
2018-Feb-19 15:01N 49°55' W 001°47'815.9
2018-Feb-19 14:30N 49°53' W 001°35'815.2
2018-Feb-19 14:01N 49°50' W 001°24'714.4
2018-Feb-19 13:30N 49°48' W 001°13'613.0
2018-Feb-19 13:00N 49°46' W 001°04'613.0
2018-Feb-19 12:30N 49°43' W 000°55'815.1
2018-Feb-19 12:00N 49°41' W 000°44'611.5
2018-Feb-19 11:30N 49°39' W 000°35'611.4
2018-Feb-19 11:00N 49°36' W 000°27'611.2
2018-Feb-19 10:30N 49°34' W 000°19'611.5
2018-Feb-19 10:00N 49°32' W 000°11'611.5
2018-Feb-19 09:30N 49°30' W 000°03'713.0
2018-Feb-19 09:00N 49°28' E 000°07'2 4.6
2018-Feb-19 08:29N 49°27' E 000°10'0 0.0
2018-Feb-19 07:59N 49°27' E 000°10'0 0.0
2018-Feb-19 07:30N 49°27' E 000°10'0 0.0
2018-Feb-19 06:59N 49°27' E 000°10'0 0.0
2018-Feb-19 06:29N 49°27' E 000°10'0 0.0
2018-Feb-19 05:59N 49°27' E 000°10'0 0.0
2018-Feb-19 05:29N 49°27' E 000°10'0 0.0
2018-Feb-19 05:00N 49°27' E 000°10'0 0.0
2018-Feb-19 04:29N 49°27' E 000°10'0 0.0
2018-Feb-19 03:59N 49°27' E 000°10'0 0.0
2018-Feb-19 03:29N 49°27' E 000°10'0 0.0
2018-Feb-19 02:59N 49°27' E 000°10'0 0.0
2018-Feb-19 02:29N 49°27' E 000°10'0 0.0
2018-Feb-19 01:59N 49°27' E 000°10'0 0.0
2018-Feb-19 01:29N 49°27' E 000°10'0 0.0
2018-Feb-19 00:59N 49°27' E 000°10'0 0.0
2018-Feb-19 00:29N 49°27' E 000°10'0 0.0
2018-Feb-18 23:59N 49°27' E 000°10'0 0.0
2018-Feb-18 23:29N 49°27' E 000°10'0 0.0
2018-Feb-18 22:59N 49°27' E 000°10'0 0.0
2018-Feb-18 22:29N 49°27' E 000°10'0 0.0
2018-Feb-18 21:59N 49°27' E 000°10'0 0.0
2018-Feb-18 21:29N 49°27' E 000°10'0 0.0
2018-Feb-18 20:59N 49°27' E 000°10'0 0.0
2018-Feb-18 20:31N 49°27' E 000°10'3 5.8
2018-Feb-18 20:00N 49°28' E 000°06'2 4.2
2018-Feb-18 19:28N 49°28' E 000°09'0 0.0
2018-Feb-18 18:58N 49°28' E 000°09'0 0.0
2018-Feb-18 18:28N 49°28' E 000°09'0 0.0
2018-Feb-18 17:58N 49°28' E 000°09'0 0.0
2018-Feb-18 17:28N 49°28' E 000°09'0 0.0
2018-Feb-18 16:58N 49°28' E 000°09'0 0.0
2018-Feb-18 16:28N 49°28' E 000°09'0 0.0
2018-Feb-18 15:58N 49°28' E 000°09'0 0.0
2018-Feb-18 15:28N 49°28' E 000°09'0 0.0
2018-Feb-18 14:58N 49°28' E 000°09'0 0.0
2018-Feb-18 14:28N 49°28' E 000°09'0 0.0
2018-Feb-18 13:58N 49°28' E 000°09'0 0.0
2018-Feb-18 13:28N 49°28' E 000°09'0 0.0
2018-Feb-18 12:58N 49°28' E 000°09'0 0.0
2018-Feb-18 12:28N 49°28' E 000°09'0 0.0
2018-Feb-18 11:58N 49°28' E 000°09'0 0.0
2018-Feb-18 11:28N 49°28' E 000°09'0 0.0
2018-Feb-18 11:00N 49°28' E 000°09'2 3.2
2018-Feb-18 10:31N 49°29' E 000°07'713.9
2018-Feb-18 10:00N 49°31' W 000°03'713.1
2018-Feb-18 09:31N 49°33' W 000°13'713.9
2018-Feb-18 09:00N 49°35' W 000°23'714.1
2018-Feb-18 08:30N 49°38' W 000°33'714.3
2018-Feb-18 08:00N 49°40' W 000°43'714.1
2018-Feb-18 07:30N 49°43' W 000°53'713.8
2018-Feb-18 07:01N 49°45' W 001°03'612.9
2018-Feb-18 06:30N 49°48' W 001°13'611.6
2018-Feb-18 06:01N 49°50' W 001°21'510.6
2018-Feb-18 05:31N 49°51' W 001°29'5 9.9
2018-Feb-18 05:00N 49°51' W 001°37'5 9.3
2018-Feb-18 04:30N 49°51' W 001°44'4 8.5
2018-Feb-18 04:00N 49°52' W 001°51'4 7.9
2018-Feb-18 03:30N 49°52' W 001°57'4 7.9
2018-Feb-18 03:01N 49°52' W 002°03'22 9.8
2018-Feb-18 00:44N 49°50' W 002°37'612.3
2018-Feb-18 00:13N 49°48' W 002°47'8113.0
2018-Feb-17 17:59N 49°08' W 004°35'814.2
2018-Feb-17 17:25N 49°04' W 004°46'614.2
2018-Feb-17 17:00N 49°02' W 004°54'714.1
2018-Feb-17 16:30N 48°58' W 005°03'814.0
2018-Feb-17 15:57N 48°54' W 005°13'614.2
2018-Feb-17 15:31N 48°51' W 005°21'714.2
2018-Feb-17 15:00N 48°47' W 005°31'713.4
2018-Feb-17 14:28N 48°42' W 005°38'613.8
2018-Feb-17 14:00N 48°36' W 005°43'712.4
2018-Feb-17 13:26N 48°30' W 005°39'512.8
2018-Feb-17 13:00N 48°25' W 005°35'612.5
2018-Feb-17 12:29N 48°19' W 005°30'712.1
2018-Feb-17 11:57N 48°14' W 005°25'512.1
2018-Feb-17 11:30N 48°09' W 005°22'611.8
2018-Feb-17 11:00N 48°04' W 005°17'611.3
2018-Feb-17 10:30N 47°59' W 005°12'611.1
2018-Feb-17 10:00N 47°56' W 005°06'611.3
2018-Feb-17 09:30N 47°53' W 004°59'611.5
2018-Feb-17 09:00N 47°50' W 004°51'611.5
2018-Feb-17 08:29N 47°46' W 004°44'611.5
2018-Feb-17 07:58N 47°43' W 004°37'714.5
2018-Feb-17 07:30N 47°39' W 004°28'815.1
2018-Feb-17 07:00N 47°35' W 004°19'711.6
2018-Feb-17 06:26N 47°32' W 004°10'511.8
2018-Feb-17 06:00N 47°29' W 004°04'611.7
2018-Feb-17 05:30N 47°26' W 003°57'611.5
2018-Feb-17 05:00N 47°23' W 003°50'611.5
2018-Feb-17 04:30N 47°20' W 003°43'611.5
2018-Feb-17 04:00N 47°17' W 003°35'611.0
2018-Feb-17 03:30N 47°14' W 003°28'611.2
2018-Feb-17 03:00N 47°11' W 003°21'611.4
2018-Feb-17 02:30N 47°09' W 003°13'611.5
2018-Feb-17 02:00N 47°07' W 003°05'611.8
2018-Feb-17 01:29N 47°04' W 002°57'912.2
2018-Feb-17 00:43N 47°02' W 002°44'312.4
2018-Feb-17 00:30N 47°01' W 002°40'611.8
2018-Feb-17 00:00N 47°03' W 002°32'612.0
2018-Feb-16 23:30N 47°06' W 002°24'611.5
2018-Feb-16 23:00N 47°10' W 002°19'714.0
2018-Feb-16 22:31N 47°16' W 002°12'3 5.9
2018-Feb-16 22:00N 47°18' W 002°09'0 0.0
2018-Feb-16 21:30N 47°18' W 002°09'0 0.0
2018-Feb-16 21:00N 47°18' W 002°09'0 0.0
2018-Feb-16 20:30N 47°18' W 002°09'0 0.0
2018-Feb-16 20:00N 47°18' W 002°09'0 0.0
2018-Feb-16 19:30N 47°18' W 002°09'0 0.0
2018-Feb-16 19:00N 47°18' W 002°09'0 0.0
2018-Feb-16 18:30N 47°18' W 002°09'0 0.0
2018-Feb-16 17:57N 47°18' W 002°09'0 0.0
2018-Feb-16 17:30N 47°18' W 002°09'0 0.0
2018-Feb-16 17:00N 47°18' W 002°09'0 0.0
2018-Feb-16 16:24N 47°18' W 002°09'0 0.0
2018-Feb-16 15:57N 47°18' W 002°09'0 0.0
2018-Feb-16 15:27N 47°18' W 002°09'0 0.0
2018-Feb-16 14:45N 47°18' W 002°09'0 0.0
2018-Feb-16 14:30N 47°18' W 002°09'0 0.0
2018-Feb-16 14:00N 47°18' W 002°09'0 0.0
2018-Feb-16 13:24N 47°18' W 002°09'0 0.0
2018-Feb-16 13:00N 47°18' W 002°09'0 0.0
2018-Feb-16 12:30N 47°18' W 002°09'0 0.0
2018-Feb-16 12:00N 47°18' W 002°09'0 0.0
2018-Feb-16 11:30N 47°18' W 002°09'0 0.0
2018-Feb-16 11:00N 47°18' W 002°09'0 0.0
2018-Feb-16 10:30N 47°18' W 002°09'0 0.0
2018-Feb-16 09:55N 47°18' W 002°09'1 2.2
2018-Feb-16 09:30N 47°17' W 002°10'612.3
2018-Feb-16 09:00N 47°13' W 002°17'713.0
2018-Feb-16 08:30N 47°07' W 002°22'611.5
2018-Feb-16 08:00N 47°04' W 002°28'611.7
2018-Feb-16 07:30N 47°01' W 002°36'611.9
2018-Feb-16 07:00N 46°58' W 002°44'612.2
2018-Feb-16 06:29N 46°54' W 002°51'810.9
2018-Feb-16 05:46N 46°47' W 002°47'312.4
2018-Feb-16 05:29N 46°45' W 002°44'612.4
2018-Feb-16 05:00N 46°40' W 002°38'612.2
2018-Feb-16 04:30N 46°35' W 002°32'612.2
2018-Feb-16 04:00N 46°31' W 002°27'611.9
2018-Feb-16 03:30N 46°26' W 002°21'611.7
2018-Feb-16 03:00N 46°22' W 002°15'611.9
2018-Feb-16 02:30N 46°17' W 002°10'611.9
2018-Feb-16 01:59N 46°12' W 002°04'611.8
2018-Feb-16 01:30N 46°08' W 001°59'611.9
2018-Feb-16 01:00N 46°03' W 001°54'612.1
2018-Feb-16 00:30N 45°59' W 001°48'612.5
2018-Feb-16 00:00N 45°54' W 001°43'1112.5
2018-Feb-15 23:06N 45°45' W 001°33'312.6
2018-Feb-15 22:50N 45°42' W 001°30'512.7
2018-Feb-15 22:28N 45°39' W 001°26'510.1
2018-Feb-15 22:00N 45°37' W 001°19'714.7
2018-Feb-15 21:30N 45°39' W 001°09'814.7
2018-Feb-15 21:00N 45°33' W 001°02'917.5
2018-Feb-15 20:30N 45°27' W 000°54'816.1
2018-Feb-15 20:00N 45°20' W 000°47'2414.0
2018-Feb-15 18:18N 44°59' W 000°32'14 0.9
2018-Feb-15 01:58N 45°11' W 000°43'715.0
2018-Feb-15 01:30N 45°18' W 000°46'816.0
2018-Feb-15 01:00N 45°25' W 000°51'816.9
2018-Feb-15 00:30N 45°31' W 000°59'613.1
2018-Feb-15 00:01N 45°36' W 001°04'714.8
2018-Feb-14 23:30N 45°39' W 001°14'612.7
2018-Feb-14 23:00N 45°37' W 001°23'1611.9
2018-Feb-14 21:39N 45°51' W 001°33'312.8
2018-Feb-14 21:27N 45°54' W 001°34'612.7
2018-Feb-14 21:00N 45°59' W 001°37'713.1
2018-Feb-14 20:30N 46°05' W 001°40'612.1
2018-Feb-14 20:01N 46°07' W 001°32'714.5
2018-Feb-14 19:31N 46°06' W 001°21'510.2
2018-Feb-14 19:00N 46°09' W 001°15'1 2.1
2018-Feb-14 18:30N 46°09' W 001°13'0 0.0
2018-Feb-14 18:00N 46°09' W 001°13'0 0.0
2018-Feb-14 17:30N 46°09' W 001°13'0 0.0
2018-Feb-14 17:00N 46°09' W 001°13'0 0.0
2018-Feb-14 16:30N 46°09' W 001°13'0 0.0
2018-Feb-14 16:00N 46°09' W 001°13'0 0.0
2018-Feb-14 15:30N 46°09' W 001°13'0 0.0
2018-Feb-14 15:00N 46°09' W 001°13'0 0.0
2018-Feb-14 14:30N 46°09' W 001°13'0 0.0
2018-Feb-14 14:00N 46°09' W 001°13'0 0.0
2018-Feb-14 13:30N 46°09' W 001°13'0 0.0
2018-Feb-14 13:00N 46°09' W 001°13'0 0.0
2018-Feb-14 12:30N 46°09' W 001°13'0 0.0
2018-Feb-14 12:00N 46°09' W 001°13'0 0.0
2018-Feb-14 11:31N 46°09' W 001°13'1 2.3
2018-Feb-14 11:01N 46°09' W 001°15'510.5
2018-Feb-14 10:30N 46°06' W 001°22'917.2
2018-Feb-14 10:00N 46°08' W 001°34'815.9
2018-Feb-14 09:30N 46°10' W 001°45'815.8
2018-Feb-14 09:00N 46°14' W 001°54'815.9
2018-Feb-14 08:30N 46°19' W 002°03'1115.8
2018-Feb-14 07:48N 46°26' W 002°16'516.1
2018-Feb-14 07:30N 46°29' W 002°21'5916.8
2018-Feb-14 03:59N 47°04' W 003°32'4017.4
2018-Feb-14 01:43N 47°29' W 004°17'817.2
2018-Feb-14 01:15N 47°34' W 004°26'517.4
2018-Feb-14 01:00N 47°36' W 004°31'917.4
2018-Feb-14 00:29N 47°41' W 004°42'817.3
2018-Feb-14 00:00N 47°46' W 004°52'917.1
2018-Feb-13 23:30N 47°52' W 005°02'1217.1
2018-Feb-13 22:46N 47°59' W 005°17'717.1
2018-Feb-13 22:22N 48°05' W 005°23'717.4
2018-Feb-13 21:59N 48°10' W 005°28'11810.5
2018-Feb-13 10:46N 49°43' W 003°37'311.9
2018-Feb-13 10:30N 49°44' W 003°32'611.5
2018-Feb-13 10:00N 49°47' W 003°25'510.4
2018-Feb-13 09:30N 49°49' W 003°18'5 9.5
2018-Feb-13 09:00N 49°52' W 003°11'4 8.9
2018-Feb-13 08:30N 49°54' W 003°06'4 7.5
2018-Feb-13 08:00N 49°56' W 003°01'4 7.4
2018-Feb-13 07:30N 49°58' W 002°55'5 8.4
2018-Feb-13 06:58N 49°59' W 002°49'4 8.3
2018-Feb-13 06:30N 49°60' W 002°43'4 8.0
2018-Feb-13 05:58N 50°01' W 002°36'4 8.1
2018-Feb-13 05:30N 50°02' W 002°31'  

Dump ship's entire track history